sensor_id;sensor_type;location;lat;lon;timestamp;pressure;altitude;pressure_sealevel;temperature;humidity
76084;BME280;64789;0.000;0.000;2023-05-07T00:00:08;93832.16;;;9.83;66.25
76084;BME280;64789;0.000;0.000;2023-05-07T00:02:34;93834.38;;;9.77;67.26
76084;BME280;64789;0.000;0.000;2023-05-07T00:05:00;93838.91;;;9.60;67.62
76084;BME280;64789;0.000;0.000;2023-05-07T00:07:27;93846.44;;;9.52;67.24
76084;BME280;64789;0.000;0.000;2023-05-07T00:09:53;93850.06;;;9.60;67.96
76084;BME280;64789;0.000;0.000;2023-05-07T00:12:18;93841.56;;;9.45;68.43
76084;BME280;64789;0.000;0.000;2023-05-07T00:14:44;93849.59;;;9.27;68.10
76084;BME280;64789;0.000;0.000;2023-05-07T00:17:10;93846.59;;;9.05;68.99
76084;BME280;64789;0.000;0.000;2023-05-07T00:19:36;93845.72;;;9.10;69.83
76084;BME280;64789;0.000;0.000;2023-05-07T00:22:01;93844.63;;;8.92;69.93
76084;BME280;64789;0.000;0.000;2023-05-07T00:24:27;93848.06;;;8.85;70.67
76084;BME280;64789;0.000;0.000;2023-05-07T00:26:53;93845.50;;;8.87;70.88
76084;BME280;64789;0.000;0.000;2023-05-07T00:29:18;93839.69;;;8.85;70.97
76084;BME280;64789;0.000;0.000;2023-05-07T00:31:44;93851.34;;;8.97;70.89
76084;BME280;64789;0.000;0.000;2023-05-07T00:34:09;93855.31;;;9.01;70.30
76084;BME280;64789;0.000;0.000;2023-05-07T00:36:34;93857.22;;;9.06;70.45
76084;BME280;64789;0.000;0.000;2023-05-07T00:39:01;93866.78;;;9.18;69.62
76084;BME280;64789;0.000;0.000;2023-05-07T00:41:29;93867.47;;;9.11;70.68
76084;BME280;64789;0.000;0.000;2023-05-07T00:43:55;93868.28;;;8.99;71.71
76084;BME280;64789;0.000;0.000;2023-05-07T00:46:22;93868.75;;;9.10;71.13
76084;BME280;64789;0.000;0.000;2023-05-07T00:48:48;93864.41;;;9.22;69.79
76084;BME280;64789;0.000;0.000;2023-05-07T00:51:15;93869.03;;;9.61;68.72
76084;BME280;64789;0.000;0.000;2023-05-07T00:53:40;93875.28;;;9.75;67.42
76084;BME280;64789;0.000;0.000;2023-05-07T00:56:06;93875.34;;;9.62;68.54
76084;BME280;64789;0.000;0.000;2023-05-07T00:58:32;93871.69;;;9.46;68.56
76084;BME280;64789;0.000;0.000;2023-05-07T01:00:57;93863.19;;;9.52;68.48
76084;BME280;64789;0.000;0.000;2023-05-07T01:03:23;93873.31;;;9.62;69.33
76084;BME280;64789;0.000;0.000;2023-05-07T01:05:49;93871.19;;;9.76;69.15
76084;BME280;64789;0.000;0.000;2023-05-07T01:08:15;93862.84;;;9.55;69.65
76084;BME280;64789;0.000;0.000;2023-05-07T01:10:42;93859.47;;;9.29;69.50
76084;BME280;64789;0.000;0.000;2023-05-07T01:13:09;93862.09;;;9.13;70.14
76084;BME280;64789;0.000;0.000;2023-05-07T01:15:35;93850.81;;;9.88;69.33
76084;BME280;64789;0.000;0.000;2023-05-07T01:18:01;93848.84;;;10.32;67.08
76084;BME280;64789;0.000;0.000;2023-05-07T01:20:32;93850.84;;;10.17;68.08
76084;BME280;64789;0.000;0.000;2023-05-07T01:22:58;93844.31;;;10.14;68.32
76084;BME280;64789;0.000;0.000;2023-05-07T01:25:25;93856.38;;;10.45;68.00
76084;BME280;64789;0.000;0.000;2023-05-07T01:27:54;93844.09;;;10.48;68.10
76084;BME280;64789;0.000;0.000;2023-05-07T01:30:24;93838.81;;;10.37;68.16
76084;BME280;64789;0.000;0.000;2023-05-07T01:32:52;93836.25;;;10.39;68.35
76084;BME280;64789;0.000;0.000;2023-05-07T01:35:20;93845.41;;;10.54;67.96
76084;BME280;64789;0.000;0.000;2023-05-07T01:37:47;93834.50;;;10.72;68.25
76084;BME280;64789;0.000;0.000;2023-05-07T01:40:13;93843.31;;;10.40;69.16
76084;BME280;64789;0.000;0.000;2023-05-07T01:42:39;93841.53;;;10.57;69.29
76084;BME280;64789;0.000;0.000;2023-05-07T01:45:07;93844.03;;;10.84;69.06
76084;BME280;64789;0.000;0.000;2023-05-07T01:47:32;93840.19;;;11.09;66.46
76084;BME280;64789;0.000;0.000;2023-05-07T01:49:58;93849.78;;;10.71;68.37
76084;BME280;64789;0.000;0.000;2023-05-07T01:52:24;93843.41;;;10.63;67.55
76084;BME280;64789;0.000;0.000;2023-05-07T01:54:50;93843.31;;;10.40;68.61
76084;BME280;64789;0.000;0.000;2023-05-07T01:57:16;93834.66;;;10.23;71.44
76084;BME280;64789;0.000;0.000;2023-05-07T01:59:41;93834.09;;;10.60;70.45
76084;BME280;64789;0.000;0.000;2023-05-07T02:02:07;93818.94;;;10.40;71.57
76084;BME280;64789;0.000;0.000;2023-05-07T02:04:33;93824.25;;;10.74;72.56
76084;BME280;64789;0.000;0.000;2023-05-07T02:06:59;93820.44;;;10.49;72.64
76084;BME280;64789;0.000;0.000;2023-05-07T02:09:25;93816.09;;;10.33;73.19
76084;BME280;64789;0.000;0.000;2023-05-07T02:11:51;93811.72;;;10.52;72.85
76084;BME280;64789;0.000;0.000;2023-05-07T02:14:18;93822.50;;;10.48;72.86
76084;BME280;64789;0.000;0.000;2023-05-07T02:16:45;93812.50;;;10.61;72.39
76084;BME280;64789;0.000;0.000;2023-05-07T02:19:12;93817.72;;;10.72;71.90
76084;BME280;64789;0.000;0.000;2023-05-07T02:21:38;93813.59;;;10.57;72.57
76084;BME280;64789;0.000;0.000;2023-05-07T02:24:04;93819.16;;;10.50;73.18
76084;BME280;64789;0.000;0.000;2023-05-07T02:26:29;93811.34;;;10.48;72.43
76084;BME280;64789;0.000;0.000;2023-05-07T02:28:55;93812.44;;;10.45;73.20
76084;BME280;64789;0.000;0.000;2023-05-07T02:31:21;93798.28;;;10.43;72.19
76084;BME280;64789;0.000;0.000;2023-05-07T02:33:46;93800.66;;;10.39;72.51
76084;BME280;64789;0.000;0.000;2023-05-07T02:36:13;93802.78;;;10.46;72.26
76084;BME280;64789;0.000;0.000;2023-05-07T02:38:44;93801.28;;;10.53;72.41
76084;BME280;64789;0.000;0.000;2023-05-07T02:41:10;93806.72;;;10.59;72.82
76084;BME280;64789;0.000;0.000;2023-05-07T02:43:36;93799.44;;;10.55;71.89
76084;BME280;64789;0.000;0.000;2023-05-07T02:48:28;93804.09;;;10.17;73.44
76084;BME280;64789;0.000;0.000;2023-05-07T02:50:54;93800.59;;;10.17;74.55
76084;BME280;64789;0.000;0.000;2023-05-07T02:53:19;93805.66;;;10.26;74.45
76084;BME280;64789;0.000;0.000;2023-05-07T02:55:45;93799.03;;;10.44;73.06
76084;BME280;64789;0.000;0.000;2023-05-07T02:58:11;93807.56;;;10.38;73.22
76084;BME280;64789;0.000;0.000;2023-05-07T03:00:38;93805.69;;;10.33;72.92
76084;BME280;64789;0.000;0.000;2023-05-07T03:03:14;93811.44;;;10.94;71.00
76084;BME280;64789;0.000;0.000;2023-05-07T03:05:39;93820.16;;;10.68;71.61
76084;BME280;64789;0.000;0.000;2023-05-07T03:08:05;93823.38;;;10.36;73.04
76084;BME280;64789;0.000;0.000;2023-05-07T03:10:31;93813.34;;;10.40;72.79
76084;BME280;64789;0.000;0.000;2023-05-07T03:12:56;93812.50;;;9.89;74.17
76084;BME280;64789;0.000;0.000;2023-05-07T03:15:22;93820.56;;;10.28;72.44
76084;BME280;64789;0.000;0.000;2023-05-07T03:17:48;93817.56;;;10.26;72.85
76084;BME280;64789;0.000;0.000;2023-05-07T03:20:13;93821.47;;;9.95;73.59
76084;BME280;64789;0.000;0.000;2023-05-07T03:22:40;93821.19;;;9.85;74.01
76084;BME280;64789;0.000;0.000;2023-05-07T03:25:06;93827.63;;;10.01;74.11
76084;BME280;64789;0.000;0.000;2023-05-07T03:27:32;93833.38;;;9.96;73.59
76084;BME280;64789;0.000;0.000;2023-05-07T03:29:58;93830.53;;;9.88;74.26
76084;BME280;64789;0.000;0.000;2023-05-07T03:32:23;93827.25;;;9.69;73.35
76084;BME280;64789;0.000;0.000;2023-05-07T03:34:50;93826.47;;;9.61;73.95
76084;BME280;64789;0.000;0.000;2023-05-07T03:37:15;93828.31;;;9.38;74.03
76084;BME280;64789;0.000;0.000;2023-05-07T03:39:42;93832.03;;;9.40;74.08
76084;BME280;64789;0.000;0.000;2023-05-07T03:42:07;93833.00;;;9.43;74.51
76084;BME280;64789;0.000;0.000;2023-05-07T03:44:33;93824.44;;;9.41;74.35
76084;BME280;64789;0.000;0.000;2023-05-07T03:46:59;93838.28;;;9.54;74.87
76084;BME280;64789;0.000;0.000;2023-05-07T03:49:25;93834.97;;;9.35;75.83
76084;BME280;64789;0.000;0.000;2023-05-07T03:51:50;93836.03;;;9.52;75.61
76084;BME280;64789;0.000;0.000;2023-05-07T03:54:16;93839.91;;;9.70;75.30
76084;BME280;64789;0.000;0.000;2023-05-07T03:56:44;93836.22;;;9.75;74.44
76084;BME280;64789;0.000;0.000;2023-05-07T03:59:09;93845.38;;;10.11;73.97
76084;BME280;64789;0.000;0.000;2023-05-07T04:01:35;93842.09;;;10.20;73.91
76084;BME280;64789;0.000;0.000;2023-05-07T04:04:01;93850.44;;;10.13;73.78
76084;BME280;64789;0.000;0.000;2023-05-07T04:06:27;93850.34;;;10.05;74.45
76084;BME280;64789;0.000;0.000;2023-05-07T04:08:53;93851.84;;;10.06;75.09
76084;BME280;64789;0.000;0.000;2023-05-07T04:11:18;93852.88;;;10.16;74.71
76084;BME280;64789;0.000;0.000;2023-05-07T04:13:44;93854.53;;;9.91;75.80
76084;BME280;64789;0.000;0.000;2023-05-07T04:16:09;93859.56;;;10.13;75.86
76084;BME280;64789;0.000;0.000;2023-05-07T04:18:36;93858.88;;;10.28;75.05
76084;BME280;64789;0.000;0.000;2023-05-07T04:21:03;93867.63;;;10.24;75.08
76084;BME280;64789;0.000;0.000;2023-05-07T04:23:29;93866.31;;;10.25;74.74
76084;BME280;64789;0.000;0.000;2023-05-07T04:25:57;93874.34;;;10.29;75.59
76084;BME280;64789;0.000;0.000;2023-05-07T04:28:29;93878.78;;;10.60;73.99
76084;BME280;64789;0.000;0.000;2023-05-07T04:30:57;93884.72;;;10.56;74.48
76084;BME280;64789;0.000;0.000;2023-05-07T04:33:23;93887.50;;;11.00;73.30
76084;BME280;64789;0.000;0.000;2023-05-07T04:35:49;93885.19;;;10.76;74.07
76084;BME280;64789;0.000;0.000;2023-05-07T04:38:15;93885.31;;;10.63;74.78
76084;BME280;64789;0.000;0.000;2023-05-07T04:40:41;93898.03;;;10.79;75.11
76084;BME280;64789;0.000;0.000;2023-05-07T04:43:09;93900.75;;;10.56;75.55
76084;BME280;64789;0.000;0.000;2023-05-07T04:45:42;93892.47;;;10.86;74.75
76084;BME280;64789;0.000;0.000;2023-05-07T04:48:08;93899.19;;;11.42;71.98
76084;BME280;64789;0.000;0.000;2023-05-07T04:50:35;93909.88;;;11.73;70.82
76084;BME280;64789;0.000;0.000;2023-05-07T04:53:02;93907.41;;;11.62;70.93
76084;BME280;64789;0.000;0.000;2023-05-07T04:55:28;93912.22;;;11.39;71.17
76084;BME280;64789;0.000;0.000;2023-05-07T04:57:54;93914.03;;;11.14;74.04
76084;BME280;64789;0.000;0.000;2023-05-07T05:00:20;93910.06;;;11.75;70.80
76084;BME280;64789;0.000;0.000;2023-05-07T05:02:47;93911.53;;;11.76;70.80
76084;BME280;64789;0.000;0.000;2023-05-07T05:05:17;93903.31;;;12.24;69.04
76084;BME280;64789;0.000;0.000;2023-05-07T05:07:43;93896.19;;;12.38;67.94
76084;BME280;64789;0.000;0.000;2023-05-07T05:10:09;93898.28;;;11.77;71.12
76084;BME280;64789;0.000;0.000;2023-05-07T05:12:37;93893.22;;;11.53;72.27
76084;BME280;64789;0.000;0.000;2023-05-07T05:15:04;93890.03;;;11.41;72.71
76084;BME280;64789;0.000;0.000;2023-05-07T05:17:29;93892.84;;;11.49;73.53
76084;BME280;64789;0.000;0.000;2023-05-07T05:19:55;93893.38;;;11.47;74.35
76084;BME280;64789;0.000;0.000;2023-05-07T05:22:22;93897.69;;;11.48;73.69
76084;BME280;64789;0.000;0.000;2023-05-07T05:24:48;93900.31;;;11.54;73.62
76084;BME280;64789;0.000;0.000;2023-05-07T05:27:13;93889.66;;;11.60;72.83
76084;BME280;64789;0.000;0.000;2023-05-07T05:29:39;93886.34;;;11.92;72.00
76084;BME280;64789;0.000;0.000;2023-05-07T05:32:05;93894.00;;;11.99;72.99
76084;BME280;64789;0.000;0.000;2023-05-07T05:34:30;93899.59;;;12.14;73.40
76084;BME280;64789;0.000;0.000;2023-05-07T05:36:56;93906.69;;;12.30;71.95
76084;BME280;64789;0.000;0.000;2023-05-07T05:39:22;93910.59;;;12.27;72.74
76084;BME280;64789;0.000;0.000;2023-05-07T05:41:48;93916.00;;;12.32;72.77
76084;BME280;64789;0.000;0.000;2023-05-07T05:44:14;93915.25;;;12.32;72.08
76084;BME280;64789;0.000;0.000;2023-05-07T05:46:41;93912.38;;;12.62;71.56
76084;BME280;64789;0.000;0.000;2023-05-07T05:49:06;93911.94;;;12.88;70.81
76084;BME280;64789;0.000;0.000;2023-05-07T05:51:32;93910.88;;;12.76;71.12
76084;BME280;64789;0.000;0.000;2023-05-07T05:53:58;93917.72;;;12.90;71.65
76084;BME280;64789;0.000;0.000;2023-05-07T05:56:23;93917.72;;;13.38;68.21
76084;BME280;64789;0.000;0.000;2023-05-07T05:58:49;93918.81;;;13.10;70.46
76084;BME280;64789;0.000;0.000;2023-05-07T06:01:15;93903.84;;;13.00;70.01
76084;BME280;64789;0.000;0.000;2023-05-07T06:03:42;93905.19;;;13.39;67.52
76084;BME280;64789;0.000;0.000;2023-05-07T06:06:12;93916.78;;;13.35;69.15
76084;BME280;64789;0.000;0.000;2023-05-07T06:08:41;93914.56;;;13.34;69.23
76084;BME280;64789;0.000;0.000;2023-05-07T06:11:06;93924.25;;;13.40;70.60
76084;BME280;64789;0.000;0.000;2023-05-07T06:13:35;93925.78;;;13.34;69.58
76084;BME280;64789;0.000;0.000;2023-05-07T06:16:00;93913.72;;;13.48;70.52
76084;BME280;64789;0.000;0.000;2023-05-07T06:18:26;93923.81;;;13.83;70.52
76084;BME280;64789;0.000;0.000;2023-05-07T06:20:51;93921.44;;;13.72;69.13
76084;BME280;64789;0.000;0.000;2023-05-07T06:23:23;93916.25;;;13.69;68.81
76084;BME280;64789;0.000;0.000;2023-05-07T06:25:49;93918.16;;;13.59;68.53
76084;BME280;64789;0.000;0.000;2023-05-07T06:28:17;93916.03;;;13.67;69.10
76084;BME280;64789;0.000;0.000;2023-05-07T06:30:42;93913.16;;;14.31;65.40
76084;BME280;64789;0.000;0.000;2023-05-07T06:33:08;93905.47;;;14.32;66.16
76084;BME280;64789;0.000;0.000;2023-05-07T06:35:34;93909.44;;;14.21;65.48
76084;BME280;64789;0.000;0.000;2023-05-07T06:38:00;93910.59;;;14.18;67.17
76084;BME280;64789;0.000;0.000;2023-05-07T06:40:28;93913.25;;;14.16;65.78
76084;BME280;64789;0.000;0.000;2023-05-07T06:42:53;93913.25;;;14.41;66.20
76084;BME280;64789;0.000;0.000;2023-05-07T06:45:29;93908.06;;;14.55;66.40
76084;BME280;64789;0.000;0.000;2023-05-07T06:47:56;93909.22;;;14.86;63.70
76084;BME280;64789;0.000;0.000;2023-05-07T06:50:22;93901.88;;;15.34;61.76
76084;BME280;64789;0.000;0.000;2023-05-07T06:52:49;93897.88;;;14.93;65.11
76084;BME280;64789;0.000;0.000;2023-05-07T06:55:14;93891.00;;;14.87;65.89
76084;BME280;64789;0.000;0.000;2023-05-07T06:57:40;93892.59;;;14.97;66.13
76084;BME280;64789;0.000;0.000;2023-05-07T07:00:06;93898.13;;;15.05;65.53
76084;BME280;64789;0.000;0.000;2023-05-07T07:02:41;93895.78;;;15.45;62.79
76084;BME280;64789;0.000;0.000;2023-05-07T07:05:08;93900.69;;;15.54;65.08
76084;BME280;64789;0.000;0.000;2023-05-07T07:07:34;93893.13;;;15.84;62.22
76084;BME280;64789;0.000;0.000;2023-05-07T07:09:59;93898.28;;;15.77;63.62
76084;BME280;64789;0.000;0.000;2023-05-07T07:12:26;93893.06;;;15.64;63.69
76084;BME280;64789;0.000;0.000;2023-05-07T07:14:54;93896.66;;;15.74;62.13
76084;BME280;64789;0.000;0.000;2023-05-07T07:17:19;93895.28;;;15.66;63.67
76084;BME280;64789;0.000;0.000;2023-05-07T07:19:45;93901.06;;;15.68;65.74
76084;BME280;64789;0.000;0.000;2023-05-07T07:22:11;93891.19;;;15.76;64.25
76084;BME280;64789;0.000;0.000;2023-05-07T07:24:37;93895.16;;;16.10;63.35
76084;BME280;64789;0.000;0.000;2023-05-07T07:27:05;93896.03;;;16.03;63.08
76084;BME280;64789;0.000;0.000;2023-05-07T07:29:33;93895.78;;;16.18;62.88
76084;BME280;64789;0.000;0.000;2023-05-07T07:31:58;93896.97;;;16.15;63.62
76084;BME280;64789;0.000;0.000;2023-05-07T07:34:24;93897.69;;;16.06;61.30
76084;BME280;64789;0.000;0.000;2023-05-07T07:36:50;93898.00;;;16.10;63.25
76084;BME280;64789;0.000;0.000;2023-05-07T07:39:17;93899.19;;;16.16;63.26
76084;BME280;64789;0.000;0.000;2023-05-07T07:41:44;93894.94;;;16.34;60.78
76084;BME280;64789;0.000;0.000;2023-05-07T07:44:11;93902.25;;;16.47;63.70
76084;BME280;64789;0.000;0.000;2023-05-07T07:46:39;93897.41;;;16.57;61.43
76084;BME280;64789;0.000;0.000;2023-05-07T07:49:05;93904.88;;;16.81;62.15
76084;BME280;64789;0.000;0.000;2023-05-07T07:51:31;93907.84;;;17.02;60.76
76084;BME280;64789;0.000;0.000;2023-05-07T07:53:58;93906.66;;;17.15;61.48
76084;BME280;64789;0.000;0.000;2023-05-07T07:56:24;93906.22;;;17.19;61.36
76084;BME280;64789;0.000;0.000;2023-05-07T07:58:50;93897.69;;;17.66;55.20
76084;BME280;64789;0.000;0.000;2023-05-07T08:01:17;93895.47;;;17.36;60.62
76084;BME280;64789;0.000;0.000;2023-05-07T08:03:44;93911.09;;;17.56;60.37
76084;BME280;64789;0.000;0.000;2023-05-07T08:06:11;93909.91;;;17.50;60.28
76084;BME280;64789;0.000;0.000;2023-05-07T08:08:36;93908.56;;;17.70;60.14
76084;BME280;64789;0.000;0.000;2023-05-07T08:11:02;93909.09;;;17.78;60.56
76084;BME280;64789;0.000;0.000;2023-05-07T08:13:31;93905.66;;;17.89;60.60
76084;BME280;64789;0.000;0.000;2023-05-07T08:15:57;93905.66;;;17.89;59.25
76084;BME280;64789;0.000;0.000;2023-05-07T08:18:23;93903.25;;;17.95;56.74
76084;BME280;64789;0.000;0.000;2023-05-07T08:20:50;93906.66;;;18.03;58.11
76084;BME280;64789;0.000;0.000;2023-05-07T08:23:20;93899.00;;;18.15;58.98
76084;BME280;64789;0.000;0.000;2023-05-07T08:25:47;93899.28;;;18.19;58.71
76084;BME280;64789;0.000;0.000;2023-05-07T08:28:13;93901.47;;;18.30;57.83
76084;BME280;64789;0.000;0.000;2023-05-07T08:30:39;93895.66;;;18.38;56.75
76084;BME280;64789;0.000;0.000;2023-05-07T08:33:05;93899.59;;;18.54;56.14
76084;BME280;64789;0.000;0.000;2023-05-07T08:35:30;93891.53;;;18.60;54.84
76084;BME280;64789;0.000;0.000;2023-05-07T08:37:56;93886.47;;;18.80;56.21
76084;BME280;64789;0.000;0.000;2023-05-07T08:40:25;93895.66;;;18.90;56.55
76084;BME280;64789;0.000;0.000;2023-05-07T08:42:52;93890.59;;;18.88;55.84
76084;BME280;64789;0.000;0.000;2023-05-07T08:45:18;93882.97;;;18.91;54.41
76084;BME280;64789;0.000;0.000;2023-05-07T08:47:52;93885.69;;;19.43;49.92
76084;BME280;64789;0.000;0.000;2023-05-07T08:50:21;93892.97;;;19.25;54.29
76084;BME280;64789;0.000;0.000;2023-05-07T08:52:47;93891.31;;;19.10;55.42
76084;BME280;64789;0.000;0.000;2023-05-07T08:55:15;93886.66;;;19.15;53.45
76084;BME280;64789;0.000;0.000;2023-05-07T08:57:42;93882.31;;;19.35;54.77
76084;BME280;64789;0.000;0.000;2023-05-07T09:00:09;93885.59;;;19.52;48.32
76084;BME280;64789;0.000;0.000;2023-05-07T09:02:36;93879.09;;;19.61;52.98
76084;BME280;64789;0.000;0.000;2023-05-07T09:05:03;93886.00;;;19.58;52.72
76084;BME280;64789;0.000;0.000;2023-05-07T09:07:29;93886.19;;;19.84;52.24
76084;BME280;64789;0.000;0.000;2023-05-07T09:09:55;93890.69;;;20.33;46.20
76084;BME280;64789;0.000;0.000;2023-05-07T09:12:22;93884.25;;;20.21;46.14
76084;BME280;64789;0.000;0.000;2023-05-07T09:14:48;93883.34;;;19.84;47.39
76084;BME280;64789;0.000;0.000;2023-05-07T09:17:15;93878.28;;;19.71;50.08
76084;BME280;64789;0.000;0.000;2023-05-07T09:19:42;93872.78;;;20.19;48.76
76084;BME280;64789;0.000;0.000;2023-05-07T09:22:08;93875.03;;;20.32;49.48
76084;BME280;64789;0.000;0.000;2023-05-07T09:24:50;93878.47;;;20.30;49.84
76084;BME280;64789;0.000;0.000;2023-05-07T09:27:18;93866.50;;;20.32;49.95
76084;BME280;64789;0.000;0.000;2023-05-07T09:29:44;93871.34;;;20.41;44.73
76084;BME280;64789;0.000;0.000;2023-05-07T09:32:10;93874.66;;;20.49;46.86
76084;BME280;64789;0.000;0.000;2023-05-07T09:34:36;93858.88;;;20.46;47.98
76084;BME280;64789;0.000;0.000;2023-05-07T09:37:02;93866.50;;;20.55;47.19
76084;BME280;64789;0.000;0.000;2023-05-07T09:39:41;93858.53;;;21.00;43.54
76084;BME280;64789;0.000;0.000;2023-05-07T09:42:07;93857.34;;;20.80;43.62
76084;BME280;64789;0.000;0.000;2023-05-07T09:44:35;93849.97;;;20.63;39.53
76084;BME280;64789;0.000;0.000;2023-05-07T09:47:06;93854.25;;;20.64;41.57
76084;BME280;64789;0.000;0.000;2023-05-07T09:49:39;93859.59;;;20.58;39.87
76084;BME280;64789;0.000;0.000;2023-05-07T09:52:08;93850.81;;;20.54;41.90
76084;BME280;64789;0.000;0.000;2023-05-07T09:54:39;93857.09;;;20.64;38.50
76084;BME280;64789;0.000;0.000;2023-05-07T09:57:06;93846.94;;;20.84;41.30
76084;BME280;64789;0.000;0.000;2023-05-07T09:59:33;93852.41;;;20.80;40.22
76084;BME280;64789;0.000;0.000;2023-05-07T10:02:03;93844.31;;;21.00;42.82
76084;BME280;64789;0.000;0.000;2023-05-07T10:04:30;93850.41;;;21.56;37.30
76084;BME280;64789;0.000;0.000;2023-05-07T10:06:56;93846.81;;;21.31;40.13
76084;BME280;64789;0.000;0.000;2023-05-07T10:09:25;93846.72;;;21.29;43.09
76084;BME280;64789;0.000;0.000;2023-05-07T10:11:51;93846.97;;;21.72;39.62
76084;BME280;64789;0.000;0.000;2023-05-07T10:14:19;93847.09;;;21.74;36.48
76084;BME280;64789;0.000;0.000;2023-05-07T10:16:45;93849.78;;;21.33;38.28
76084;BME280;64789;0.000;0.000;2023-05-07T10:19:15;93835.44;;;21.31;38.53
76084;BME280;64789;0.000;0.000;2023-05-07T10:21:54;93833.06;;;21.14;40.04
76084;BME280;64789;0.000;0.000;2023-05-07T10:24:26;93829.06;;;21.69;33.34
76084;BME280;64789;0.000;0.000;2023-05-07T10:26:53;93820.59;;;21.32;38.74
76084;BME280;64789;0.000;0.000;2023-05-07T10:31:51;93827.34;;;21.64;40.86
76084;BME280;64789;0.000;0.000;2023-05-07T10:34:21;93815.78;;;21.99;37.43
76084;BME280;64789;0.000;0.000;2023-05-07T10:36:49;93819.41;;;22.27;33.49
76084;BME280;64789;0.000;0.000;2023-05-07T10:39:15;93801.19;;;21.79;33.18
76084;BME280;64789;0.000;0.000;2023-05-07T10:41:41;93804.50;;;22.01;34.93
76084;BME280;64789;0.000;0.000;2023-05-07T10:44:09;93799.78;;;22.05;38.29
76084;BME280;64789;0.000;0.000;2023-05-07T10:46:35;93791.94;;;21.79;38.82
76084;BME280;64789;0.000;0.000;2023-05-07T10:49:09;93799.66;;;22.03;38.32
76084;BME280;64789;0.000;0.000;2023-05-07T10:51:44;93794.72;;;21.90;38.23
76084;BME280;64789;0.000;0.000;2023-05-07T10:54:19;93797.19;;;21.84;38.67
76084;BME280;64789;0.000;0.000;2023-05-07T10:56:53;93794.41;;;22.11;37.57
76084;BME280;64789;0.000;0.000;2023-05-07T10:59:31;93797.25;;;22.11;36.42
76084;BME280;64789;0.000;0.000;2023-05-07T11:02:02;93792.94;;;22.10;37.94
76084;BME280;64789;0.000;0.000;2023-05-07T11:04:35;93797.78;;;22.21;37.33
76084;BME280;64789;0.000;0.000;2023-05-07T11:07:21;93799.78;;;22.05;37.83
76084;BME280;64789;0.000;0.000;2023-05-07T11:09:54;93802.56;;;22.44;33.03
76084;BME280;64789;0.000;0.000;2023-05-07T11:15:12;93795.16;;;22.25;37.06
76084;BME280;64789;0.000;0.000;2023-05-07T11:17:54;93793.16;;;22.42;36.35
76084;BME280;64789;0.000;0.000;2023-05-07T11:20:43;93793.47;;;22.20;31.79
76084;BME280;64789;0.000;0.000;2023-05-07T11:26:19;93788.09;;;22.67;38.04
76084;BME280;64789;0.000;0.000;2023-05-07T11:28:45;93794.53;;;22.54;37.36
76084;BME280;64789;0.000;0.000;2023-05-07T11:31:11;93791.06;;;22.42;36.80
76084;BME280;64789;0.000;0.000;2023-05-07T11:33:38;93792.75;;;22.34;38.21
76084;BME280;64789;0.000;0.000;2023-05-07T11:36:07;93799.59;;;22.56;37.39
76084;BME280;64789;0.000;0.000;2023-05-07T11:38:38;93797.19;;;22.64;36.94
76084;BME280;64789;0.000;0.000;2023-05-07T11:41:04;93782.34;;;23.08;32.28
76084;BME280;64789;0.000;0.000;2023-05-07T11:43:32;93786.09;;;22.70;37.54
76084;BME280;64789;0.000;0.000;2023-05-07T11:46:05;93788.53;;;22.62;37.02
76084;BME280;64789;0.000;0.000;2023-05-07T11:48:31;93786.13;;;22.99;35.90
76084;BME280;64789;0.000;0.000;2023-05-07T11:51:02;93791.22;;;23.01;35.76
76084;BME280;64789;0.000;0.000;2023-05-07T11:53:28;93789.25;;;22.76;36.66
76084;BME280;64789;0.000;0.000;2023-05-07T11:56:00;93787.22;;;22.92;36.64
76084;BME280;64789;0.000;0.000;2023-05-07T11:58:26;93782.28;;;22.79;35.24
76084;BME280;64789;0.000;0.000;2023-05-07T12:00:52;93781.63;;;23.23;33.56
76084;BME280;64789;0.000;0.000;2023-05-07T12:03:19;93774.59;;;22.68;37.12
76084;BME280;64789;0.000;0.000;2023-05-07T12:05:45;93779.66;;;22.56;35.50
76084;BME280;64789;0.000;0.000;2023-05-07T12:08:14;93785.25;;;22.40;37.22
76084;BME280;64789;0.000;0.000;2023-05-07T12:10:41;93771.66;;;22.39;36.33
76084;BME280;64789;0.000;0.000;2023-05-07T12:13:17;93770.69;;;22.48;37.70
76084;BME280;64789;0.000;0.000;2023-05-07T12:15:43;93772.28;;;22.51;36.10
76084;BME280;64789;0.000;0.000;2023-05-07T12:18:09;93769.34;;;23.05;33.44
76084;BME280;64789;0.000;0.000;2023-05-07T12:20:35;93771.03;;;23.10;35.89
76084;BME280;64789;0.000;0.000;2023-05-07T12:23:01;93773.19;;;22.96;36.97
76084;BME280;64789;0.000;0.000;2023-05-07T12:25:30;93767.50;;;23.25;32.75
76084;BME280;64789;0.000;0.000;2023-05-07T12:27:57;93766.75;;;23.25;31.52
76084;BME280;64789;0.000;0.000;2023-05-07T12:30:24;93757.13;;;23.03;32.61
76084;BME280;64789;0.000;0.000;2023-05-07T12:32:53;93752.34;;;22.64;32.99
76084;BME280;64789;0.000;0.000;2023-05-07T12:35:31;93753.94;;;22.97;35.78
76084;BME280;64789;0.000;0.000;2023-05-07T12:37:58;93745.50;;;22.99;35.74
76084;BME280;64789;0.000;0.000;2023-05-07T12:40:46;93750.25;;;22.94;34.39
76084;BME280;64789;0.000;0.000;2023-05-07T12:43:17;93750.16;;;22.92;37.26
76084;BME280;64789;0.000;0.000;2023-05-07T12:45:43;93744.56;;;22.94;35.90
76084;BME280;64789;0.000;0.000;2023-05-07T12:48:10;93735.44;;;23.11;31.12
76084;BME280;64789;0.000;0.000;2023-05-07T12:50:36;93733.72;;;23.49;31.31
76084;BME280;64789;0.000;0.000;2023-05-07T12:53:04;93728.53;;;23.16;32.48
76084;BME280;64789;0.000;0.000;2023-05-07T12:55:31;93733.88;;;23.37;29.50
76084;BME280;64789;0.000;0.000;2023-05-07T12:57:57;93724.34;;;23.17;30.26
76084;BME280;64789;0.000;0.000;2023-05-07T13:00:35;93731.72;;;22.93;34.29
76084;BME280;64789;0.000;0.000;2023-05-07T13:03:01;93718.56;;;22.72;36.88
76084;BME280;64789;0.000;0.000;2023-05-07T13:05:27;93722.66;;;22.83;36.13
76084;BME280;64789;0.000;0.000;2023-05-07T13:07:53;93720.09;;;22.89;34.95
76084;BME280;64789;0.000;0.000;2023-05-07T13:10:19;93707.81;;;23.29;36.24
76084;BME280;64789;0.000;0.000;2023-05-07T13:12:45;93709.06;;;23.56;34.00
76084;BME280;64789;0.000;0.000;2023-05-07T13:15:10;93707.09;;;23.00;33.21
76084;BME280;64789;0.000;0.000;2023-05-07T13:17:36;93704.22;;;23.29;34.55
76084;BME280;64789;0.000;0.000;2023-05-07T13:20:01;93707.63;;;22.96;34.77
76084;BME280;64789;0.000;0.000;2023-05-07T13:22:28;93702.03;;;22.98;37.07